createdAt,value
2022-12-04T00:01:13.706Z,71.72
2022-12-04T00:03:40.322Z,71.68
2022-12-04T00:06:13.191Z,71.50
2022-12-04T00:08:40.573Z,71.58
2022-12-04T00:11:09.011Z,71.73
2022-12-04T00:13:36.055Z,71.84
2022-12-04T00:16:05.652Z,71.75
2022-12-04T00:18:32.243Z,72.09
2022-12-04T00:20:58.644Z,71.66
2022-12-04T00:23:24.974Z,71.57
2022-12-04T00:25:53.188Z,71.81
2022-12-04T00:28:19.600Z,71.73
2022-12-04T00:30:46.004Z,72.30
2022-12-04T00:33:13.620Z,72.00
2022-12-04T00:35:40.758Z,71.52
2022-12-04T00:38:07.141Z,72.14
2022-12-04T00:40:33.634Z,71.90
2022-12-04T00:43:00.043Z,72.18
2022-12-04T00:45:26.605Z,72.19
2022-12-04T00:47:52.977Z,71.94
2022-12-04T00:50:19.369Z,72.00
2022-12-04T00:52:45.796Z,72.12
2022-12-04T00:55:12.165Z,72.08
2022-12-04T00:57:38.621Z,72.15
2022-12-04T01:00:06.755Z,72.09
2022-12-04T01:02:34.028Z,72.25
2022-12-04T01:05:01.720Z,72.14
2022-12-04T01:07:28.210Z,71.57
2022-12-04T01:09:54.791Z,71.92
2022-12-04T01:12:21.353Z,72.30
2022-12-04T01:14:47.785Z,72.50
2022-12-04T01:17:14.110Z,71.86
2022-12-04T01:19:40.479Z,72.00
2022-12-04T01:22:06.857Z,72.25
2022-12-04T01:24:33.180Z,72.24
2022-12-04T01:26:59.622Z,72.40
2022-12-04T01:29:25.990Z,71.95
2022-12-04T01:31:52.446Z,72.10
2022-12-04T01:34:18.974Z,72.40
2022-12-04T01:36:45.425Z,71.73
2022-12-04T01:39:12.195Z,72.04
2022-12-04T01:41:38.680Z,71.85
2022-12-04T01:44:20.444Z,72.25
2022-12-04T01:46:54.332Z,72.18
2022-12-04T01:49:28.588Z,71.48
2022-12-04T01:52:00.750Z,71.86
2022-12-04T01:54:34.120Z,72.20
2022-12-04T01:57:09.653Z,71.94
2022-12-04T01:59:42.863Z,71.82
2022-12-04T02:02:13.224Z,72.22
2022-12-04T02:04:42.158Z,72.00
2022-12-04T02:07:09.087Z,72.41
2022-12-04T02:09:39.310Z,72.01
2022-12-04T02:12:16.892Z,71.94
2022-12-04T02:15:07.699Z,72.09
2022-12-04T02:18:15.798Z,72.23
2022-12-04T02:21:14.132Z,71.89
2022-12-04T02:23:53.950Z,72.28
2022-12-04T02:26:41.552Z,72.23
2022-12-04T02:29:16.382Z,71.77
2022-12-04T02:31:53.884Z,71.87
2022-12-04T02:34:39.122Z,72.34
2022-12-04T02:37:12.670Z,71.61
2022-12-04T02:39:45.541Z,71.65
2022-12-04T02:42:26.552Z,71.71
2022-12-04T02:45:03.887Z,71.94
2022-12-04T02:47:32.182Z,72.23
2022-12-04T02:50:00.523Z,71.90
2022-12-04T02:52:38.055Z,72.18
2022-12-04T02:55:15.693Z,72.12
2022-12-04T02:57:49.533Z,72.28
2022-12-04T03:00:17.477Z,72.34
2022-12-04T03:03:16.786Z,71.69
2022-12-04T03:06:02.538Z,72.50
2022-12-04T03:08:39.276Z,72.34
2022-12-04T03:11:05.676Z,72.11
2022-12-04T03:13:41.550Z,71.96
2022-12-04T03:16:16.111Z,72.48
2022-12-04T03:18:48.523Z,72.21
2022-12-04T03:21:19.874Z,72.32
2022-12-04T03:23:56.871Z,71.73
2022-12-04T03:26:33.553Z,72.00
2022-12-04T03:29:11.657Z,72.24
2022-12-04T03:31:55.486Z,72.38
2022-12-04T03:34:29.350Z,72.34
2022-12-04T03:36:59.085Z,71.98
2022-12-04T03:39:38.750Z,72.34
2022-12-04T03:42:16.102Z,72.52
2022-12-04T03:45:13.621Z,72.33
2022-12-04T03:47:52.814Z,72.43
2022-12-04T03:50:29.972Z,72.27
2022-12-04T03:53:18.630Z,72.34
2022-12-04T03:56:00.868Z,72.41
2022-12-04T03:58:32.055Z,72.33
2022-12-04T04:01:03.911Z,72.80
2022-12-04T04:03:35.657Z,72.49
2022-12-04T04:06:08.330Z,72.50
2022-12-04T04:08:38.904Z,72.85
2022-12-04T04:11:16.842Z,72.89
2022-12-04T04:14:09.776Z,72.34
2022-12-04T04:16:58.566Z,72.86
2022-12-04T04:19:48.450Z,72.76
2022-12-04T04:22:36.294Z,72.80
2022-12-04T04:25:07.791Z,73.06
2022-12-04T04:27:34.119Z,72.56
2022-12-04T04:30:00.550Z,73.11
2022-12-04T04:32:49.960Z,73.08
2022-12-04T04:35:24.629Z,72.78
2022-12-04T04:37:57.473Z,73.25
2022-12-04T04:40:32.812Z,72.58
2022-12-04T04:43:10.990Z,73.06
2022-12-04T04:45:45.779Z,73.22
2022-12-04T04:48:20.959Z,73.47
2022-12-04T04:50:48.617Z,72.74
2022-12-04T04:53:21.892Z,73.24
2022-12-04T04:55:48.503Z,73.41
2022-12-04T04:58:17.489Z,73.52
2022-12-04T05:01:14.568Z,72.83
2022-12-04T05:03:41.803Z,73.00
2022-12-04T05:06:08.970Z,73.11
2022-12-04T05:08:36.341Z,73.21
2022-12-04T05:11:03.738Z,72.66
2022-12-04T05:13:31.379Z,73.21
2022-12-04T05:16:02.323Z,72.80
2022-12-04T05:18:29.547Z,72.85
2022-12-04T05:20:55.999Z,73.16
2022-12-04T05:23:22.670Z,73.12
2022-12-04T05:25:49.082Z,72.62
2022-12-04T05:28:15.896Z,73.19
2022-12-04T05:30:42.458Z,73.24
2022-12-04T05:33:10.418Z,73.51
2022-12-04T05:35:36.734Z,73.53
2022-12-04T05:38:03.097Z,72.99
2022-12-04T05:40:29.450Z,72.80
2022-12-04T05:42:55.802Z,72.77
2022-12-04T05:45:22.107Z,72.77
2022-12-04T05:47:48.535Z,72.96
2022-12-04T05:50:14.889Z,73.00
2022-12-04T05:52:41.315Z,73.13
2022-12-04T05:55:08.100Z,73.18
2022-12-04T05:57:34.425Z,73.40
2022-12-04T06:00:00.717Z,73.38
2022-12-04T06:02:27.069Z,73.26
2022-12-04T06:04:53.569Z,72.63
2022-12-04T06:07:20.066Z,72.95
2022-12-04T06:09:46.450Z,73.09
2022-12-04T06:12:12.810Z,73.30
2022-12-04T06:14:39.892Z,72.98
2022-12-04T06:17:07.310Z,72.82
2022-12-04T06:19:33.701Z,73.17
2022-12-04T06:22:00.036Z,73.08
2022-12-04T06:24:26.453Z,72.96
2022-12-04T06:27:26.094Z,72.68
2022-12-04T06:29:44.442Z,72.86
2022-12-04T06:32:12.979Z,72.58
2022-12-04T06:34:41.510Z,72.77
2022-12-04T06:37:09.317Z,72.73
2022-12-04T06:39:36.060Z,72.66
2022-12-04T06:42:02.379Z,73.03
2022-12-04T06:44:28.753Z,72.82
2022-12-04T06:46:55.111Z,73.07
2022-12-04T06:49:22.904Z,73.08
2022-12-04T06:51:49.303Z,72.73
2022-12-04T06:54:15.709Z,72.94
2022-12-04T06:56:42.081Z,72.76
2022-12-04T06:59:08.443Z,72.31
2022-12-04T07:01:34.988Z,72.32
2022-12-04T07:04:04.179Z,72.24
2022-12-04T07:06:36.190Z,72.77
2022-12-04T07:09:06.667Z,71.83
2022-12-04T07:11:33.721Z,71.31
2022-12-04T07:14:00.098Z,71.49
2022-12-04T07:16:28.335Z,71.04
2022-12-04T07:18:56.526Z,71.48
2022-12-04T07:21:25.546Z,71.20
2022-12-04T07:23:53.923Z,71.74
2022-12-04T07:26:21.232Z,71.42
2022-12-04T07:28:48.174Z,71.58
2022-12-04T07:31:19.064Z,71.80
2022-12-04T07:33:46.210Z,71.62
2022-12-04T07:36:18.021Z,71.56
2022-12-04T07:38:44.346Z,70.50
2022-12-04T07:41:13.160Z,69.44
2022-12-04T07:43:40.703Z,68.81
2022-12-04T07:46:17.017Z,68.73
2022-12-04T07:48:43.434Z,68.85
2022-12-04T07:51:19.511Z,68.29
2022-12-04T07:53:46.918Z,68.44
2022-12-04T07:56:14.682Z,68.19
2022-12-04T07:58:41.548Z,68.60
2022-12-04T08:01:15.531Z,68.01
2022-12-04T08:03:48.168Z,67.88
2022-12-04T08:06:17.113Z,68.05
2022-12-04T08:08:43.422Z,67.89
2022-12-04T08:11:13.133Z,67.65
2022-12-04T08:13:39.638Z,67.58
2022-12-04T08:16:07.984Z,67.57
2022-12-04T08:18:34.803Z,67.64
2022-12-04T08:21:12.131Z,67.67
2022-12-04T08:23:39.949Z,67.62
2022-12-04T08:26:07.668Z,68.43
2022-12-04T08:28:34.985Z,68.69
2022-12-04T08:31:28.948Z,68.57
2022-12-04T08:33:57.882Z,69.37
2022-12-04T08:36:24.784Z,69.35
2022-12-04T08:38:52.233Z,69.44
2022-12-04T08:41:21.215Z,69.59
2022-12-04T08:43:47.586Z,70.04
2022-12-04T08:46:16.247Z,69.52
2022-12-04T08:48:43.113Z,69.42
2022-12-04T08:51:15.557Z,69.70
2022-12-04T08:53:42.054Z,70.41
2022-12-04T08:56:08.685Z,70.64
2022-12-04T08:58:35.022Z,70.36
2022-12-04T09:01:19.681Z,70.58
2022-12-04T09:03:46.151Z,70.43
2022-12-04T09:06:14.785Z,70.34
2022-12-04T09:08:42.171Z,71.02
2022-12-04T09:11:17.999Z,70.50
2022-12-04T09:13:45.154Z,71.08
2022-12-04T09:16:17.591Z,70.72
2022-12-04T09:18:44.481Z,70.94
2022-12-04T09:21:13.162Z,71.16
2022-12-04T09:23:39.898Z,70.96
2022-12-04T09:26:15.829Z,71.44
2022-12-04T09:28:42.187Z,70.90
2022-12-04T09:31:08.640Z,70.71
2022-12-04T09:33:35.077Z,71.16
2022-12-04T09:36:02.814Z,71.14
2022-12-04T09:38:30.345Z,71.26
2022-12-04T09:41:13.086Z,71.82
2022-12-04T09:43:42.436Z,71.18
2022-12-04T09:46:41.268Z,71.52
2022-12-04T09:49:17.173Z,71.75
2022-12-04T09:51:43.974Z,71.52
2022-12-04T09:54:17.022Z,71.79
2022-12-04T09:56:51.727Z,71.92
2022-12-04T09:59:24.611Z,71.72
2022-12-04T10:02:10.193Z,71.96
2022-12-04T10:04:36.529Z,71.77
2022-12-04T10:07:33.426Z,72.34
2022-12-04T10:10:35.272Z,72.61
2022-12-04T10:13:35.839Z,72.25
2022-12-04T10:16:23.186Z,71.72
2022-12-04T10:19:12.958Z,72.34
2022-12-04T10:22:20.965Z,72.33
2022-12-04T10:24:51.558Z,71.87
2022-12-04T10:27:24.026Z,72.54
2022-12-04T10:29:56.661Z,72.23
2022-12-04T10:32:28.372Z,72.10
2022-12-04T10:34:58.330Z,72.08
2022-12-04T10:37:26.083Z,72.25
2022-12-04T10:39:58.169Z,72.01
2022-12-04T10:42:31.211Z,71.92
2022-12-04T10:44:57.802Z,71.55
2022-12-04T10:47:25.442Z,72.00
2022-12-04T10:50:00.596Z,71.96
2022-12-04T10:52:27.038Z,72.15
2022-12-04T10:55:02.334Z,71.87
2022-12-04T10:57:40.825Z,71.50
2022-12-04T11:00:24.307Z,71.73
2022-12-04T11:02:52.573Z,71.73
2022-12-04T11:05:45.477Z,71.81
2022-12-04T11:08:24.192Z,72.06
2022-12-04T11:11:06.473Z,72.08
2022-12-04T11:13:33.385Z,72.08
2022-12-04T11:16:00.701Z,71.72
2022-12-04T11:18:48.897Z,71.87
2022-12-04T11:21:18.953Z,71.78
2022-12-04T11:23:49.305Z,71.65
2022-12-04T11:26:18.528Z,71.67
2022-12-04T11:28:51.021Z,71.31
2022-12-04T11:31:21.225Z,71.44
2022-12-04T11:34:08.208Z,71.39
2022-12-04T11:36:40.573Z,71.70
2022-12-04T11:39:12.765Z,71.61
2022-12-04T11:41:39.585Z,71.12
2022-12-04T11:44:07.330Z,71.46
2022-12-04T11:46:34.629Z,71.67
2022-12-04T11:49:03.307Z,71.50
2022-12-04T11:51:51.003Z,72.07
2022-12-04T11:54:50.998Z,71.63
2022-12-04T11:57:46.992Z,71.52
2022-12-04T12:00:19.207Z,72.21
2022-12-04T12:03:04.099Z,71.98
2022-12-04T12:05:43.636Z,71.92
2022-12-04T12:08:19.783Z,71.65
2022-12-04T12:11:12.379Z,72.40
2022-12-04T12:13:48.433Z,71.90
2022-12-04T12:16:36.507Z,71.75
2022-12-04T12:19:26.769Z,72.26
2022-12-04T12:22:25.854Z,72.07
2022-12-04T12:24:59.252Z,72.08
2022-12-04T12:28:01.653Z,71.73
2022-12-04T12:30:39.617Z,71.57
2022-12-04T12:33:18.308Z,71.90
2022-12-04T12:36:07.090Z,72.46
2022-12-04T12:38:36.655Z,72.37
2022-12-04T12:41:26.606Z,72.03
2022-12-04T12:44:00.633Z,72.26
2022-12-04T12:46:51.360Z,72.29
2022-12-04T12:49:24.664Z,72.39
2022-12-04T12:52:01.439Z,72.67
2022-12-04T12:54:40.964Z,72.69
2022-12-04T12:57:15.385Z,72.47
2022-12-04T12:59:47.473Z,73.05
2022-12-04T13:02:29.022Z,72.85
2022-12-04T13:05:04.164Z,72.86
2022-12-04T13:07:54.963Z,73.05
2022-12-04T13:10:30.309Z,72.72
2022-12-04T13:13:02.985Z,73.22
2022-12-04T13:15:50.695Z,72.79
2022-12-04T13:18:27.574Z,72.78
2022-12-04T13:21:00.377Z,73.05
2022-12-04T13:23:48.977Z,73.47
2022-12-04T13:26:53.327Z,73.16
2022-12-04T13:29:41.137Z,72.88
2022-12-04T13:32:30.155Z,72.87
2022-12-04T13:35:07.675Z,72.77
2022-12-04T13:38:03.394Z,72.72
2022-12-04T13:40:39.770Z,73.12
2022-12-04T13:43:31.964Z,72.52
2022-12-04T13:46:02.036Z,72.50
2022-12-04T13:48:40.725Z,72.93
2022-12-04T13:51:22.229Z,72.72
2022-12-04T13:54:00.897Z,73.03
2022-12-04T13:56:29.662Z,72.76
2022-12-04T13:59:05.575Z,72.67
2022-12-04T14:01:39.354Z,72.88
2022-12-04T14:04:07.657Z,72.12
2022-12-04T14:06:36.326Z,72.64
2022-12-04T14:09:07.195Z,72.77
2022-12-04T14:11:44.941Z,72.46
2022-12-04T14:14:31.283Z,72.60
2022-12-04T14:16:59.530Z,72.51
2022-12-04T14:19:35.626Z,72.67
2022-12-04T14:22:02.767Z,72.52
2022-12-04T14:24:31.787Z,72.42
2022-12-04T14:27:13.830Z,72.17
2022-12-04T14:29:52.028Z,72.04
2022-12-04T14:32:35.083Z,72.13
2022-12-04T14:35:02.182Z,72.38
2022-12-04T14:37:34.361Z,72.32
2022-12-04T14:40:02.880Z,72.38
2022-12-04T14:42:38.189Z,72.05
2022-12-04T14:45:19.395Z,72.32
2022-12-04T14:47:54.743Z,72.54
2022-12-04T14:50:48.585Z,72.49
2022-12-04T14:53:48.441Z,72.04
2022-12-04T14:56:29.927Z,72.33
2022-12-04T14:58:58.313Z,72.26
2022-12-04T15:01:35.465Z,72.15
2022-12-04T15:04:32.631Z,72.58
2022-12-04T15:07:00.776Z,72.34
2022-12-04T15:09:46.968Z,72.42
2022-12-04T15:12:33.484Z,72.35
2022-12-04T15:15:09.502Z,72.80
2022-12-04T15:17:35.834Z,72.97
2022-12-04T15:20:18.382Z,72.61
2022-12-04T15:22:45.066Z,73.07
2022-12-04T15:25:24.046Z,72.55
2022-12-04T15:27:53.315Z,72.77
2022-12-04T15:30:22.798Z,73.12
2022-12-04T15:32:52.076Z,73.20
2022-12-04T15:35:32.318Z,73.38
2022-12-04T15:37:59.186Z,73.11
2022-12-04T15:40:29.400Z,73.01
2022-12-04T15:43:07.306Z,72.99
2022-12-04T15:45:34.774Z,72.85
2022-12-04T15:48:01.582Z,73.12
2022-12-04T15:50:29.951Z,73.34
2022-12-04T15:52:56.210Z,73.05
2022-12-04T15:55:24.317Z,73.19
2022-12-04T15:57:54.041Z,73.30
2022-12-04T16:00:46.720Z,73.36
2022-12-04T16:03:30.850Z,73.37
2022-12-04T16:06:06.301Z,73.22
2022-12-04T16:08:35.541Z,73.61
2022-12-04T16:11:08.379Z,72.90
2022-12-04T16:13:38.018Z,72.77
2022-12-04T16:16:12.480Z,72.73
2022-12-04T16:18:39.504Z,73.19
2022-12-04T16:21:09.440Z,73.14
2022-12-04T16:23:35.899Z,73.73
2022-12-04T16:26:02.306Z,73.03
2022-12-04T16:28:28.666Z,73.38
2022-12-04T16:30:55.192Z,72.93
2022-12-04T16:33:21.628Z,73.39
2022-12-04T16:35:47.999Z,73.50
2022-12-04T16:38:16.801Z,73.21
2022-12-04T16:40:45.374Z,73.47
2022-12-04T16:43:14.305Z,73.24
2022-12-04T16:45:46.162Z,73.45
2022-12-04T16:48:13.042Z,73.68
2022-12-04T16:50:39.507Z,73.54
2022-12-04T16:53:05.883Z,73.45
2022-12-04T16:55:38.314Z,73.62
2022-12-04T16:58:05.868Z,73.09
2022-12-04T17:00:32.483Z,73.38
2022-12-04T17:02:58.867Z,73.57
2022-12-04T17:05:29.167Z,73.20
2022-12-04T17:07:55.882Z,73.58
2022-12-04T17:10:24.302Z,73.48
2022-12-04T17:12:54.180Z,73.47
2022-12-04T17:15:20.955Z,73.24
2022-12-04T17:17:47.322Z,73.65
2022-12-04T17:20:17.217Z,73.90
2022-12-04T17:22:43.838Z,73.69
2022-12-04T17:25:11.245Z,73.69
2022-12-04T17:27:38.018Z,73.65
2022-12-04T17:30:06.095Z,73.76
2022-12-04T17:32:34.793Z,73.38
2022-12-04T17:35:01.694Z,73.41
2022-12-04T17:37:28.038Z,73.91
2022-12-04T17:39:54.393Z,73.78
2022-12-04T17:42:20.880Z,73.65
2022-12-04T17:44:47.269Z,74.06
2022-12-04T17:47:13.805Z,73.84
2022-12-04T17:49:40.237Z,73.68
2022-12-04T17:52:06.883Z,73.77
2022-12-04T17:54:33.507Z,73.88
2022-12-04T17:56:59.866Z,73.58
2022-12-04T17:59:26.370Z,74.08
2022-12-04T18:01:52.755Z,74.10
2022-12-04T18:04:19.676Z,73.82
2022-12-04T18:06:46.755Z,73.77
2022-12-04T18:09:15.542Z,74.21
2022-12-04T18:11:44.679Z,73.95
2022-12-04T18:14:13.845Z,73.94
2022-12-04T18:16:52.847Z,73.69
2022-12-04T18:19:24.674Z,74.00
2022-12-04T18:21:51.311Z,73.64
2022-12-04T18:24:18.524Z,73.96
2022-12-04T18:26:47.881Z,73.64
2022-12-04T18:29:17.578Z,73.76
2022-12-04T18:31:45.548Z,73.44
2022-12-04T18:34:12.679Z,74.02
2022-12-04T18:36:40.609Z,74.17
2022-12-04T18:39:20.653Z,73.74
2022-12-04T18:41:47.787Z,74.22
2022-12-04T18:44:15.170Z,74.20
2022-12-04T18:46:42.187Z,74.01
2022-12-04T18:49:10.311Z,74.05
2022-12-04T18:51:44.644Z,74.33
2022-12-04T18:54:16.304Z,73.93
2022-12-04T18:56:43.461Z,73.91
2022-12-04T18:59:16.152Z,74.05
2022-12-04T19:01:43.237Z,73.95
2022-12-04T19:04:12.011Z,74.07
2022-12-04T19:06:43.841Z,73.93
2022-12-04T19:09:13.330Z,74.33
2022-12-04T19:11:41.210Z,74.18
2022-12-04T19:14:17.564Z,74.05
2022-12-04T19:16:47.545Z,74.06
2022-12-04T19:19:14.569Z,74.32
2022-12-04T19:21:41.521Z,74.03
2022-12-04T19:24:09.645Z,74.03
2022-12-04T19:26:36.072Z,74.11
2022-12-04T19:29:04.459Z,74.53
2022-12-04T19:31:34.485Z,74.23
2022-12-04T19:34:01.435Z,74.08
2022-12-04T19:36:30.138Z,74.31
2022-12-04T19:38:58.006Z,74.55
2022-12-04T19:41:27.391Z,74.32
2022-12-04T19:43:59.376Z,74.00
2022-12-04T19:46:28.767Z,74.44
2022-12-04T19:48:58.319Z,74.01
2022-12-04T19:51:25.910Z,74.33
2022-12-04T19:53:54.148Z,74.30
2022-12-04T19:56:24.424Z,74.13
2022-12-04T19:58:51.965Z,74.34
2022-12-04T20:01:20.841Z,74.21
2022-12-04T20:03:47.538Z,74.34
2022-12-04T20:06:17.911Z,74.59
2022-12-04T20:08:45.293Z,74.57
2022-12-04T20:11:15.673Z,74.65
2022-12-04T20:13:43.007Z,74.93
2022-12-04T20:16:11.402Z,74.76
2022-12-04T20:18:39.767Z,74.52
2022-12-04T20:21:10.914Z,74.41
2022-12-04T20:23:38.415Z,74.81
2022-12-04T20:26:06.396Z,74.28
2022-12-04T20:28:32.970Z,74.78
2022-12-04T20:30:59.569Z,74.45
2022-12-04T20:33:26.194Z,74.85
2022-12-04T20:35:52.563Z,74.72
2022-12-04T20:38:18.918Z,75.07
2022-12-04T20:40:45.583Z,74.57
2022-12-04T20:43:12.606Z,74.64
2022-12-04T20:45:39.021Z,74.51
2022-12-04T20:48:05.521Z,74.81
2022-12-04T20:50:32.199Z,74.50
2022-12-04T20:52:58.501Z,74.72
2022-12-04T20:55:24.829Z,74.61
2022-12-04T20:57:51.915Z,74.63
2022-12-04T21:00:18.486Z,74.70
2022-12-04T21:02:44.881Z,74.98
2022-12-04T21:05:11.292Z,74.72
2022-12-04T21:07:37.796Z,74.72
2022-12-04T21:10:06.382Z,74.66
2022-12-04T21:12:52.014Z,74.57
2022-12-04T21:15:36.892Z,74.84
2022-12-04T21:18:03.399Z,74.54
2022-12-04T21:20:29.838Z,74.64
2022-12-04T21:22:56.188Z,74.45
2022-12-04T21:25:22.662Z,74.41
2022-12-04T21:27:48.968Z,74.91
2022-12-04T21:30:15.402Z,74.81
2022-12-04T21:32:41.758Z,74.71
2022-12-04T21:35:08.445Z,74.82
2022-12-04T21:37:34.865Z,75.02
2022-12-04T21:40:01.496Z,74.86
2022-12-04T21:42:30.754Z,75.19
2022-12-04T21:44:58.575Z,74.96
2022-12-04T21:47:25.761Z,74.69
2022-12-04T21:49:52.194Z,74.87
2022-12-04T21:52:19.240Z,74.91
2022-12-04T21:54:49.473Z,75.10
2022-12-04T21:57:15.889Z,75.01
2022-12-04T21:59:42.280Z,75.23
2022-12-04T22:02:10.923Z,74.90
2022-12-04T22:04:37.308Z,74.89
2022-12-04T22:07:03.678Z,74.65
2022-12-04T22:09:30.140Z,75.06
2022-12-04T22:11:56.560Z,75.01
2022-12-04T22:14:23.053Z,74.76
2022-12-04T22:16:52.798Z,74.80
2022-12-04T22:19:19.262Z,74.77
2022-12-04T22:21:46.438Z,75.05
2022-12-04T22:24:12.887Z,75.02
2022-12-04T22:26:39.493Z,74.75
2022-12-04T22:29:33.759Z,75.25
2022-12-04T22:31:52.565Z,74.93
2022-12-04T22:34:19.022Z,74.84
2022-12-04T22:36:45.390Z,75.03
2022-12-04T22:39:11.843Z,74.66
2022-12-04T22:41:38.624Z,75.06
2022-12-04T22:44:05.298Z,74.79
2022-12-04T22:46:32.086Z,74.86
2022-12-04T22:48:59.571Z,75.29
2022-12-04T22:51:26.962Z,75.38
2022-12-04T22:53:55.494Z,75.00
2022-12-04T22:56:23.648Z,75.10
2022-12-04T22:58:50.938Z,75.41
2022-12-04T23:01:23.524Z,74.95
2022-12-04T23:03:50.489Z,75.03
2022-12-04T23:06:19.457Z,75.02
2022-12-04T23:08:46.419Z,75.16
2022-12-04T23:11:18.838Z,75.11
2022-12-04T23:13:50.793Z,75.13
2022-12-04T23:16:20.336Z,74.99
2022-12-04T23:18:47.392Z,75.14
2022-12-04T23:21:14.677Z,75.30
2022-12-04T23:23:43.281Z,75.12
2022-12-04T23:26:12.769Z,75.19
2022-12-04T23:28:39.474Z,75.06
2022-12-04T23:31:05.981Z,75.23
2022-12-04T23:33:33.102Z,75.12
2022-12-04T23:36:01.518Z,74.84
2022-12-04T23:38:28.874Z,75.02
2022-12-04T23:41:06.490Z,74.88
2022-12-04T23:43:33.556Z,75.22
2022-12-04T23:45:59.917Z,75.06
2022-12-04T23:48:26.533Z,74.89
2022-12-04T23:50:53.454Z,75.10
2022-12-04T23:53:21.469Z,75.06
2022-12-04T23:56:08.250Z,75.18
2022-12-04T23:58:35.909Z,75.31
